sensor_id;sensor_type;location;lat;lon;timestamp;pressure;altitude;pressure_sealevel;temperature;humidity
62617;BME280;62539;51.190;6.808;2023-07-13T00:01:50;101199.81;;;27.16;39.53
62617;BME280;62539;51.190;6.808;2023-07-13T00:04:17;101208.63;;;27.17;39.76
62617;BME280;62539;51.190;6.808;2023-07-13T00:06:45;101214.81;;;27.17;39.66
62617;BME280;62539;51.190;6.808;2023-07-13T00:09:16;101205.13;;;27.16;39.71
62617;BME280;62539;51.190;6.808;2023-07-13T00:11:43;101214.81;;;27.17;39.74
62617;BME280;62539;51.190;6.808;2023-07-13T00:14:10;101212.16;;;27.17;39.87
62617;BME280;62539;51.190;6.808;2023-07-13T00:16:38;101209.50;;;27.17;39.86
62617;BME280;62539;51.190;6.808;2023-07-13T00:19:06;101204.19;;;27.17;39.97
62617;BME280;62539;51.190;6.808;2023-07-13T00:21:31;101209.50;;;27.17;39.72
62617;BME280;62539;51.190;6.808;2023-07-13T00:23:57;101209.50;;;27.17;39.70
62617;BME280;62539;51.190;6.808;2023-07-13T00:26:23;101212.16;;;27.17;39.94
62617;BME280;62539;51.190;6.808;2023-07-13T00:28:48;101212.16;;;27.17;39.80
62617;BME280;62539;51.190;6.808;2023-07-13T00:31:14;101214.81;;;27.17;39.70
62617;BME280;62539;51.190;6.808;2023-07-13T00:33:41;101212.16;;;27.17;40.00
62617;BME280;62539;51.190;6.808;2023-07-13T00:36:08;101214.81;;;27.17;39.87
62617;BME280;62539;51.190;6.808;2023-07-13T00:38:35;101212.16;;;27.17;39.97
62617;BME280;62539;51.190;6.808;2023-07-13T00:41:02;101215.66;;;27.18;39.62
62617;BME280;62539;51.190;6.808;2023-07-13T00:43:29;101214.81;;;27.17;39.70
62617;BME280;62539;51.190;6.808;2023-07-13T00:48:24;101216.63;;;27.17;39.70
62617;BME280;62539;51.190;6.808;2023-07-13T00:50:55;101215.78;;;27.16;39.74
62617;BME280;62539;51.190;6.808;2023-07-13T00:53:25;101205.13;;;27.16;40.09
62617;BME280;62539;51.190;6.808;2023-07-13T00:55:53;101202.47;;;27.16;39.94
62617;BME280;62539;51.190;6.808;2023-07-13T00:58:22;101213.13;;;27.16;39.75
62617;BME280;62539;51.190;6.808;2023-07-13T01:00:49;101211.41;;;27.15;39.90
62617;BME280;62539;51.190;6.808;2023-07-13T01:03:16;101210.47;;;27.16;39.95
62617;BME280;62539;51.190;6.808;2023-07-13T01:05:41;101218.44;;;27.16;39.94
62617;BME280;62539;51.190;6.808;2023-07-13T01:08:07;101214.06;;;27.15;40.20
62617;BME280;62539;51.190;6.808;2023-07-13T01:10:33;101200.75;;;27.15;39.97
62617;BME280;62539;51.190;6.808;2023-07-13T01:13:05;101199.81;;;27.16;39.86
62617;BME280;62539;51.190;6.808;2023-07-13T01:15:40;101198.09;;;27.15;39.80
62617;BME280;62539;51.190;6.808;2023-07-13T01:18:18;101201.72;;;27.14;39.83
62617;BME280;62539;51.190;6.808;2023-07-13T01:21:00;101199.88;;;27.14;39.96
62617;BME280;62539;51.190;6.808;2023-07-13T01:23:29;101206.09;;;27.15;39.93
62617;BME280;62539;51.190;6.808;2023-07-13T01:25:56;101205.22;;;27.14;40.07
62617;BME280;62539;51.190;6.808;2023-07-13T01:28:23;101207.03;;;27.14;40.16
62617;BME280;62539;51.190;6.808;2023-07-13T01:30:53;101203.50;;;27.13;40.04
62617;BME280;62539;51.190;6.808;2023-07-13T01:33:20;101193.72;;;27.14;40.02
62617;BME280;62539;51.190;6.808;2023-07-13T01:35:46;101200.75;;;27.15;40.17
62617;BME280;62539;51.190;6.808;2023-07-13T01:38:15;101204.38;;;27.14;39.92
62617;BME280;62539;51.190;6.808;2023-07-13T01:40:42;101204.38;;;27.14;39.96
62617;BME280;62539;51.190;6.808;2023-07-13T01:43:08;101208.84;;;27.13;39.94
62617;BME280;62539;51.190;6.808;2023-07-13T01:45:34;101209.69;;;27.14;40.30
62617;BME280;62539;51.190;6.808;2023-07-13T01:48:00;101215.88;;;27.14;40.01
62617;BME280;62539;51.190;6.808;2023-07-13T01:50:25;101219.47;;;27.13;40.31
62617;BME280;62539;51.190;6.808;2023-07-13T01:52:51;101215.97;;;27.13;40.05
62617;BME280;62539;51.190;6.808;2023-07-13T01:55:17;101213.19;;;27.14;40.22
62617;BME280;62539;51.190;6.808;2023-07-13T01:57:42;101209.69;;;27.14;40.15
62617;BME280;62539;51.190;6.808;2023-07-13T02:00:09;101209.69;;;27.14;40.29
62617;BME280;62539;51.190;6.808;2023-07-13T02:05:12;101209.69;;;27.14;40.31
62617;BME280;62539;51.190;6.808;2023-07-13T02:07:38;101205.34;;;27.13;40.39
62617;BME280;62539;51.190;6.808;2023-07-13T02:10:06;101205.34;;;27.13;40.18
62617;BME280;62539;51.190;6.808;2023-07-13T02:12:32;101209.69;;;27.14;40.18
62617;BME280;62539;51.190;6.808;2023-07-13T02:14:58;101218.66;;;27.13;40.13
62617;BME280;62539;51.190;6.808;2023-07-13T02:17:24;101212.44;;;27.12;40.48
62617;BME280;62539;51.190;6.808;2023-07-13T02:19:51;101209.78;;;27.12;40.23
62617;BME280;62539;51.190;6.808;2023-07-13T02:22:16;101208.94;;;27.12;40.35
62617;BME280;62539;51.190;6.808;2023-07-13T02:24:42;101222.25;;;27.12;40.31
62617;BME280;62539;51.190;6.808;2023-07-13T02:27:07;101220.44;;;27.12;40.41
62617;BME280;62539;51.190;6.808;2023-07-13T02:29:32;101213.41;;;27.11;40.18
62617;BME280;62539;51.190;6.808;2023-07-13T02:31:58;101224.94;;;27.12;40.52
62617;BME280;62539;51.190;6.808;2023-07-13T02:34:23;101224.94;;;27.12;40.40
62617;BME280;62539;51.190;6.808;2023-07-13T02:36:49;101220.56;;;27.11;40.34
62617;BME280;62539;51.190;6.808;2023-07-13T02:39:14;101221.38;;;27.11;40.35
62617;BME280;62539;51.190;6.808;2023-07-13T02:41:40;101226.72;;;27.11;40.36
62617;BME280;62539;51.190;6.808;2023-07-13T02:44:06;101223.22;;;27.11;40.38
62617;BME280;62539;51.190;6.808;2023-07-13T02:46:34;101217.97;;;27.09;40.35
62617;BME280;62539;51.190;6.808;2023-07-13T02:49:02;101220.56;;;27.11;40.56
62617;BME280;62539;51.190;6.808;2023-07-13T02:51:27;101229.50;;;27.10;40.19
62617;BME280;62539;51.190;6.808;2023-07-13T02:53:53;101234.81;;;27.10;40.52
62617;BME280;62539;51.190;6.808;2023-07-13T02:56:23;101231.19;;;27.11;40.38
62617;BME280;62539;51.190;6.808;2023-07-13T02:58:50;101229.50;;;27.10;40.47
62617;BME280;62539;51.190;6.808;2023-07-13T03:01:16;101234.81;;;27.10;40.67
62617;BME280;62539;51.190;6.808;2023-07-13T03:03:46;101228.63;;;27.09;40.43
62617;BME280;62539;51.190;6.808;2023-07-13T03:06:12;101222.47;;;27.09;40.70
62617;BME280;62539;51.190;6.808;2023-07-13T03:08:39;101224.16;;;27.10;40.33
62617;BME280;62539;51.190;6.808;2023-07-13T03:11:07;101226.84;;;27.10;40.46
62617;BME280;62539;51.190;6.808;2023-07-13T03:13:39;101231.28;;;27.09;40.57
62617;BME280;62539;51.190;6.808;2023-07-13T03:16:05;101235.78;;;27.09;40.39
62617;BME280;62539;51.190;6.808;2023-07-13T03:18:31;101234.91;;;27.08;40.45
62617;BME280;62539;51.190;6.808;2023-07-13T03:20:57;101243.75;;;27.09;40.51
62617;BME280;62539;51.190;6.808;2023-07-13T03:23:22;101237.56;;;27.08;40.52
62617;BME280;62539;51.190;6.808;2023-07-13T03:25:48;101238.44;;;27.09;40.74
62617;BME280;62539;51.190;6.808;2023-07-13T03:28:14;101249.09;;;27.09;40.58
62617;BME280;62539;51.190;6.808;2023-07-13T03:30:41;101237.56;;;27.08;40.48
62617;BME280;62539;51.190;6.808;2023-07-13T03:33:07;101241.09;;;27.09;40.52
62617;BME280;62539;51.190;6.808;2023-07-13T03:35:33;101242.06;;;27.08;40.38
62617;BME280;62539;51.190;6.808;2023-07-13T03:38:00;101246.41;;;27.09;40.74
62617;BME280;62539;51.190;6.808;2023-07-13T03:40:27;101248.22;;;27.08;40.45
62617;BME280;62539;51.190;6.808;2023-07-13T03:42:53;101245.56;;;27.08;40.75
62617;BME280;62539;51.190;6.808;2023-07-13T03:45:18;101241.19;;;27.07;40.79
62617;BME280;62539;51.190;6.808;2023-07-13T03:47:44;101252.69;;;27.08;40.82
62617;BME280;62539;51.190;6.808;2023-07-13T03:50:10;101251.00;;;27.07;40.66
62617;BME280;62539;51.190;6.808;2023-07-13T03:52:36;101257.16;;;27.07;40.81
62617;BME280;62539;51.190;6.808;2023-07-13T03:55:02;101259.94;;;27.06;40.62
62617;BME280;62539;51.190;6.808;2023-07-13T03:57:27;101264.31;;;27.07;40.68
62617;BME280;62539;51.190;6.808;2023-07-13T03:59:53;101259.94;;;27.06;40.75
62617;BME280;62539;51.190;6.808;2023-07-13T04:02:18;101270.59;;;27.06;40.54
62617;BME280;62539;51.190;6.808;2023-07-13T04:04:44;101270.59;;;27.06;40.95
62617;BME280;62539;51.190;6.808;2023-07-13T04:07:09;101275.03;;;27.05;40.63
62617;BME280;62539;51.190;6.808;2023-07-13T04:09:35;101276.84;;;27.05;40.93
62617;BME280;62539;51.190;6.808;2023-07-13T04:12:01;101282.19;;;27.05;40.83
62617;BME280;62539;51.190;6.808;2023-07-13T04:14:27;101282.19;;;27.05;40.84
62617;BME280;62539;51.190;6.808;2023-07-13T04:16:52;101281.22;;;27.06;40.61
62617;BME280;62539;51.190;6.808;2023-07-13T04:19:20;101282.06;;;27.06;40.78
62617;BME280;62539;51.190;6.808;2023-07-13T04:21:46;101282.19;;;27.05;40.84
62617;BME280;62539;51.190;6.808;2023-07-13T04:24:12;101283.97;;;27.04;40.74
62617;BME280;62539;51.190;6.808;2023-07-13T04:26:38;101282.19;;;27.05;40.89
62617;BME280;62539;51.190;6.808;2023-07-13T04:29:04;101290.16;;;27.05;40.64
62617;BME280;62539;51.190;6.808;2023-07-13T04:31:31;101291.97;;;27.04;40.83
62617;BME280;62539;51.190;6.808;2023-07-13T04:33:57;101296.34;;;27.05;40.66
62617;BME280;62539;51.190;6.808;2023-07-13T04:36:22;101295.50;;;27.05;40.75
62617;BME280;62539;51.190;6.808;2023-07-13T04:38:48;101295.50;;;27.05;40.81
62617;BME280;62539;51.190;6.808;2023-07-13T04:41:14;101294.63;;;27.04;40.74
62617;BME280;62539;51.190;6.808;2023-07-13T04:43:41;101287.50;;;27.05;40.67
62617;BME280;62539;51.190;6.808;2023-07-13T04:46:09;101291.88;;;27.06;40.89
62617;BME280;62539;51.190;6.808;2023-07-13T04:48:37;101299.00;;;27.05;40.79
62617;BME280;62539;51.190;6.808;2023-07-13T04:51:03;101295.50;;;27.05;40.64
62617;BME280;62539;51.190;6.808;2023-07-13T04:53:30;101292.84;;;27.05;40.73
62617;BME280;62539;51.190;6.808;2023-07-13T04:55:56;101295.50;;;27.05;40.96
62617;BME280;62539;51.190;6.808;2023-07-13T04:58:24;101296.53;;;27.02;40.30
62617;BME280;62539;51.190;6.808;2023-07-13T05:00:50;101299.31;;;27.00;39.97
62617;BME280;62539;51.190;6.808;2023-07-13T05:03:16;101298.53;;;26.98;39.91
62617;BME280;62539;51.190;6.808;2023-07-13T05:05:41;101301.41;;;26.95;39.69
62617;BME280;62539;51.190;6.808;2023-07-13T05:08:07;101301.47;;;26.94;39.63
62617;BME280;62539;51.190;6.808;2023-07-13T05:10:33;101305.19;;;26.91;39.72
62617;BME280;62539;51.190;6.808;2023-07-13T05:13:00;101303.50;;;26.90;39.79
62617;BME280;62539;51.190;6.808;2023-07-13T05:15:26;101302.72;;;26.88;39.56
62617;BME280;62539;51.190;6.808;2023-07-13T05:17:52;101299.19;;;26.88;39.74
62617;BME280;62539;51.190;6.808;2023-07-13T05:20:18;101308.06;;;26.88;39.87
62617;BME280;62539;51.190;6.808;2023-07-13T05:22:44;101311.56;;;26.89;39.86
62617;BME280;62539;51.190;6.808;2023-07-13T05:25:12;101304.53;;;26.88;39.74
62617;BME280;62539;51.190;6.808;2023-07-13T05:27:38;101316.03;;;26.88;39.61
62617;BME280;62539;51.190;6.808;2023-07-13T05:30:05;101307.28;;;26.86;39.63
62617;BME280;62539;51.190;6.808;2023-07-13T05:32:31;101323.25;;;26.86;39.69
62617;BME280;62539;51.190;6.808;2023-07-13T05:34:56;101322.38;;;26.85;39.62
62617;BME280;62539;51.190;6.808;2023-07-13T05:37:22;101323.25;;;26.86;39.76
62617;BME280;62539;51.190;6.808;2023-07-13T05:39:47;101330.38;;;26.85;39.51
62617;BME280;62539;51.190;6.808;2023-07-13T05:42:13;101328.59;;;26.86;39.62
62617;BME280;62539;51.190;6.808;2023-07-13T05:44:39;101340.19;;;26.85;39.84
62617;BME280;62539;51.190;6.808;2023-07-13T05:47:04;101338.38;;;26.85;39.86
62617;BME280;62539;51.190;6.808;2023-07-13T05:49:30;101337.53;;;26.85;39.86
62617;BME280;62539;51.190;6.808;2023-07-13T05:51:56;101337.53;;;26.85;39.71
62617;BME280;62539;51.190;6.808;2023-07-13T05:54:22;101341.13;;;26.84;39.83
62617;BME280;62539;51.190;6.808;2023-07-13T05:56:47;101342.84;;;26.85;40.02
62617;BME280;62539;51.190;6.808;2023-07-13T05:59:13;101336.56;;;26.86;39.67
62617;BME280;62539;51.190;6.808;2023-07-13T06:01:38;101342.84;;;26.85;39.79
62617;BME280;62539;51.190;6.808;2023-07-13T06:04:04;101344.56;;;26.86;39.91
62617;BME280;62539;51.190;6.808;2023-07-13T06:06:29;101351.59;;;26.87;40.00
62617;BME280;62539;51.190;6.808;2023-07-13T06:08:54;101346.28;;;26.87;40.19
62617;BME280;62539;51.190;6.808;2023-07-13T06:11:23;101343.69;;;26.85;40.04
62617;BME280;62539;51.190;6.808;2023-07-13T06:13:49;101360.53;;;26.86;39.96
62617;BME280;62539;51.190;6.808;2023-07-13T06:16:16;101358.81;;;26.85;39.73
62617;BME280;62539;51.190;6.808;2023-07-13T06:18:42;101363.19;;;26.86;40.02
62617;BME280;62539;51.190;6.808;2023-07-13T06:21:10;101352.63;;;26.84;39.85
62617;BME280;62539;51.190;6.808;2023-07-13T06:23:47;101361.47;;;26.85;39.97
62617;BME280;62539;51.190;6.808;2023-07-13T06:26:14;101365.94;;;26.84;39.73
62617;BME280;62539;51.190;6.808;2023-07-13T06:28:40;101370.41;;;26.84;39.96
62617;BME280;62539;51.190;6.808;2023-07-13T06:31:08;101362.44;;;26.84;39.84
62617;BME280;62539;51.190;6.808;2023-07-13T06:33:35;101365.09;;;26.84;40.14
62617;BME280;62539;51.190;6.808;2023-07-13T06:36:02;101370.41;;;26.84;39.73
62617;BME280;62539;51.190;6.808;2023-07-13T06:38:29;101371.38;;;26.83;40.01
62617;BME280;62539;51.190;6.808;2023-07-13T06:40:54;101372.28;;;26.82;40.24
62617;BME280;62539;51.190;6.808;2023-07-13T06:43:20;101377.69;;;26.80;40.20
62617;BME280;62539;51.190;6.808;2023-07-13T06:45:46;101378.56;;;26.81;40.13
62617;BME280;62539;51.190;6.808;2023-07-13T06:48:14;101375.88;;;26.81;40.18
62617;BME280;62539;51.190;6.808;2023-07-13T06:50:42;101382.16;;;26.80;40.34
62617;BME280;62539;51.190;6.808;2023-07-13T06:53:08;101384.81;;;26.80;40.28
62617;BME280;62539;51.190;6.808;2023-07-13T06:55:34;101385.78;;;26.79;40.01
62617;BME280;62539;51.190;6.808;2023-07-13T06:58:00;101380.44;;;26.79;40.38
62617;BME280;62539;51.190;6.808;2023-07-13T07:00:25;101396.41;;;26.79;40.26
62617;BME280;62539;51.190;6.808;2023-07-13T07:02:51;101391.09;;;26.79;40.27
62617;BME280;62539;51.190;6.808;2023-07-13T07:05:16;101400.88;;;26.78;40.17
62617;BME280;62539;51.190;6.808;2023-07-13T07:07:42;101401.75;;;26.79;40.49
62617;BME280;62539;51.190;6.808;2023-07-13T07:10:08;101397.38;;;26.78;40.39
62617;BME280;62539;51.190;6.808;2023-07-13T07:12:33;101399.16;;;26.77;40.56
62617;BME280;62539;51.190;6.808;2023-07-13T07:14:59;101400.09;;;26.76;40.23
62617;BME280;62539;51.190;6.808;2023-07-13T07:17:24;101402.69;;;26.78;40.17
62617;BME280;62539;51.190;6.808;2023-07-13T07:19:51;101406.31;;;26.77;40.38
62617;BME280;62539;51.190;6.808;2023-07-13T07:22:19;101407.25;;;26.76;40.24
62617;BME280;62539;51.190;6.808;2023-07-13T07:24:45;101405.44;;;26.76;40.31
62617;BME280;62539;51.190;6.808;2023-07-13T07:27:10;101411.63;;;26.77;40.50
62617;BME280;62539;51.190;6.808;2023-07-13T07:29:36;101409.03;;;26.75;40.61
62617;BME280;62539;51.190;6.808;2023-07-13T07:32:01;101401.06;;;26.75;40.54
62617;BME280;62539;51.190;6.808;2023-07-13T07:34:27;101405.53;;;26.75;40.30
62617;BME280;62539;51.190;6.808;2023-07-13T07:36:53;101410.88;;;26.75;40.58
62617;BME280;62539;51.190;6.808;2023-07-13T07:39:19;101412.66;;;26.74;40.57
62617;BME280;62539;51.190;6.808;2023-07-13T07:41:44;101404.66;;;26.74;40.56
62617;BME280;62539;51.190;6.808;2023-07-13T07:44:09;101404.66;;;26.74;40.70
62617;BME280;62539;51.190;6.808;2023-07-13T07:46:35;101406.38;;;26.75;40.52
62617;BME280;62539;51.190;6.808;2023-07-13T07:49:00;101400.28;;;26.73;40.62
62617;BME280;62539;51.190;6.808;2023-07-13T07:51:26;101411.81;;;26.74;40.56
62617;BME280;62539;51.190;6.808;2023-07-13T07:53:52;101409.16;;;26.74;40.75
62617;BME280;62539;51.190;6.808;2023-07-13T07:56:17;101407.25;;;26.76;40.65
62617;BME280;62539;51.190;6.808;2023-07-13T07:58:43;101414.19;;;26.78;40.84
62617;BME280;62539;51.190;6.808;2023-07-13T08:01:08;101412.28;;;26.80;40.60
62617;BME280;62539;51.190;6.808;2023-07-13T08:03:34;101413.94;;;26.83;40.77
62617;BME280;62539;51.190;6.808;2023-07-13T08:05:59;101405.03;;;26.84;40.88
62617;BME280;62539;51.190;6.808;2023-07-13T08:08:26;101397.97;;;26.83;40.91
62617;BME280;62539;51.190;6.808;2023-07-13T08:10:52;101413.06;;;26.82;40.98
62617;BME280;62539;51.190;6.808;2023-07-13T08:13:18;101406.88;;;26.82;40.72
62617;BME280;62539;51.190;6.808;2023-07-13T08:15:44;101407.84;;;26.81;41.17
62617;BME280;62539;51.190;6.808;2023-07-13T08:18:11;101403.34;;;26.81;41.14
62617;BME280;62539;51.190;6.808;2023-07-13T08:20:39;101404.22;;;26.82;41.06
62617;BME280;62539;51.190;6.808;2023-07-13T08:23:06;101409.53;;;26.82;41.27
62617;BME280;62539;51.190;6.808;2023-07-13T08:25:32;101397.97;;;26.83;41.08
62617;BME280;62539;51.190;6.808;2023-07-13T08:27:57;101393.66;;;26.80;41.10
62617;BME280;62539;51.190;6.808;2023-07-13T08:30:23;101396.59;;;26.76;41.05
62617;BME280;62539;51.190;6.808;2023-07-13T08:32:48;101392.41;;;26.71;41.31
62617;BME280;62539;51.190;6.808;2023-07-13T08:35:14;101398.88;;;26.67;41.01
62617;BME280;62539;51.190;6.808;2023-07-13T08:37:41;101393.72;;;26.64;41.23
62617;BME280;62539;51.190;6.808;2023-07-13T08:40:10;101394.75;;;26.62;41.30
62617;BME280;62539;51.190;6.808;2023-07-13T08:42:43;101389.59;;;26.59;41.39
62617;BME280;62539;51.190;6.808;2023-07-13T08:45:20;101384.56;;;26.54;41.43
62617;BME280;62539;51.190;6.808;2023-07-13T08:48:04;101386.47;;;26.52;41.36
62617;BME280;62539;51.190;6.808;2023-07-13T08:50:39;101385.72;;;26.50;41.32
62617;BME280;62539;51.190;6.808;2023-07-13T08:53:16;101392.91;;;26.48;41.77
62617;BME280;62539;51.190;6.808;2023-07-13T08:55:43;101387.78;;;26.45;41.87
62617;BME280;62539;51.190;6.808;2023-07-13T08:58:11;101386.06;;;26.44;41.77
62617;BME280;62539;51.190;6.808;2023-07-13T09:01:06;101375.59;;;26.40;41.83
62617;BME280;62539;51.190;6.808;2023-07-13T09:03:59;101388.13;;;26.38;41.77
62617;BME280;62539;51.190;6.808;2023-07-13T09:09:51;101399.31;;;26.29;42.14
62617;BME280;62539;51.190;6.808;2023-07-13T09:12:40;101401.19;;;26.27;42.19
62617;BME280;62539;51.190;6.808;2023-07-13T09:15:30;101401.38;;;26.24;42.25
62617;BME280;62539;51.190;6.808;2023-07-13T09:18:07;101401.56;;;26.21;42.02
62617;BME280;62539;51.190;6.808;2023-07-13T09:20:48;101394.69;;;26.17;41.90
62617;BME280;62539;51.190;6.808;2023-07-13T09:23:23;101407.22;;;26.15;42.13
62617;BME280;62539;51.190;6.808;2023-07-13T09:25:54;101399.25;;;26.15;42.27
62617;BME280;62539;51.190;6.808;2023-07-13T09:28:55;101396.72;;;26.11;42.50
62617;BME280;62539;51.190;6.808;2023-07-13T09:31:30;101400.34;;;26.10;42.46
62617;BME280;62539;51.190;6.808;2023-07-13T09:33:59;101398.63;;;26.09;42.22
62617;BME280;62539;51.190;6.808;2023-07-13T09:36:30;101408.41;;;26.09;42.42
62617;BME280;62539;51.190;6.808;2023-07-13T09:39:51;101411.16;;;26.07;42.41
62617;BME280;62539;51.190;6.808;2023-07-13T09:42:15;101409.44;;;26.06;42.52
62617;BME280;62539;51.190;6.808;2023-07-13T09:44:59;101406.88;;;26.05;42.50
62617;BME280;62539;51.190;6.808;2023-07-13T09:47:30;101407.72;;;26.05;42.27
62617;BME280;62539;51.190;6.808;2023-07-13T09:50:02;101412.19;;;26.05;42.64
62617;BME280;62539;51.190;6.808;2023-07-13T09:52:41;101418.53;;;26.02;42.24
62617;BME280;62539;51.190;6.808;2023-07-13T09:55:30;101404.47;;;26.00;42.28
62617;BME280;62539;51.190;6.808;2023-07-13T09:58:04;101421.47;;;25.97;42.48
62617;BME280;62539;51.190;6.808;2023-07-13T10:00:35;101418.97;;;25.94;42.33
62617;BME280;62539;51.190;6.808;2023-07-13T10:03:13;101425.22;;;25.93;42.25
62617;BME280;62539;51.190;6.808;2023-07-13T10:05:44;101419.13;;;25.91;42.16
62617;BME280;62539;51.190;6.808;2023-07-13T10:11:00;101419.22;;;25.90;42.13
62617;BME280;62539;51.190;6.808;2023-07-13T10:13:36;101415.59;;;25.91;42.53
62617;BME280;62539;51.190;6.808;2023-07-13T10:16:06;101435.09;;;25.91;42.19
62617;BME280;62539;51.190;6.808;2023-07-13T10:18:41;101422.56;;;25.93;42.18
62617;BME280;62539;51.190;6.808;2023-07-13T10:21:14;101413.72;;;25.93;42.16
62617;BME280;62539;51.190;6.808;2023-07-13T10:23:41;101418.19;;;25.92;41.95
62617;BME280;62539;51.190;6.808;2023-07-13T10:26:13;101419.03;;;25.93;41.93
62617;BME280;62539;51.190;6.808;2023-07-13T10:28:45;101413.72;;;25.93;42.27
62617;BME280;62539;51.190;6.808;2023-07-13T10:31:15;101420.94;;;25.91;42.48
62617;BME280;62539;51.190;6.808;2023-07-13T10:33:42;101422.63;;;25.92;42.09
62617;BME280;62539;51.190;6.808;2023-07-13T10:36:28;101430.63;;;25.92;42.34
62617;BME280;62539;51.190;6.808;2023-07-13T10:38:57;101428.06;;;25.90;42.11
62617;BME280;62539;51.190;6.808;2023-07-13T10:41:27;101432.50;;;25.90;42.03
62617;BME280;62539;51.190;6.808;2023-07-13T10:43:56;101424.63;;;25.88;42.26
62617;BME280;62539;51.190;6.808;2023-07-13T10:46:27;101421.97;;;25.88;42.65
62617;BME280;62539;51.190;6.808;2023-07-13T10:49:02;101419.38;;;25.87;42.54
62617;BME280;62539;51.190;6.808;2023-07-13T10:51:32;101427.28;;;25.88;42.29
62617;BME280;62539;51.190;6.808;2023-07-13T10:54:47;101433.44;;;25.89;41.98
62617;BME280;62539;51.190;6.808;2023-07-13T10:57:14;101427.13;;;25.91;42.25
62617;BME280;62539;51.190;6.808;2023-07-13T11:00:10;101425.28;;;25.92;41.96
62617;BME280;62539;51.190;6.808;2023-07-13T11:02:37;101431.56;;;25.91;42.04
62617;BME280;62539;51.190;6.808;2023-07-13T11:05:32;101430.63;;;25.92;42.23
62617;BME280;62539;51.190;6.808;2023-07-13T11:08:31;101435.00;;;25.93;41.73
62617;BME280;62539;51.190;6.808;2023-07-13T11:11:02;101436.69;;;25.94;41.73
62617;BME280;62539;51.190;6.808;2023-07-13T11:16:34;101433.88;;;25.97;41.87
62617;BME280;62539;51.190;6.808;2023-07-13T11:21:28;101426.59;;;26.01;41.85
62617;BME280;62539;51.190;6.808;2023-07-13T11:24:15;101423.84;;;26.02;41.99
62617;BME280;62539;51.190;6.808;2023-07-13T11:31:59;101425.38;;;26.06;41.74
62617;BME280;62539;51.190;6.808;2023-07-13T11:34:45;101416.47;;;26.07;41.95
62617;BME280;62539;51.190;6.808;2023-07-13T11:37:15;101415.53;;;26.08;41.74
62617;BME280;62539;51.190;6.808;2023-07-13T11:39:45;101417.22;;;26.09;42.11
62617;BME280;62539;51.190;6.808;2023-07-13T11:42:17;101415.44;;;26.10;41.71
62617;BME280;62539;51.190;6.808;2023-07-13T11:44:50;101414.41;;;26.12;41.91
62617;BME280;62539;51.190;6.808;2023-07-13T11:47:21;101410.78;;;26.13;41.86
62617;BME280;62539;51.190;6.808;2023-07-13T11:49:52;101407.22;;;26.15;41.76
62617;BME280;62539;51.190;6.808;2023-07-13T11:52:32;101412.47;;;26.16;41.81
62617;BME280;62539;51.190;6.808;2023-07-13T11:55:04;101401.72;;;26.18;41.56
62617;BME280;62539;51.190;6.808;2023-07-13T11:58:00;101403.53;;;26.17;41.56
62617;BME280;62539;51.190;6.808;2023-07-13T12:00:29;101401.56;;;26.21;41.53
62617;BME280;62539;51.190;6.808;2023-07-13T12:02:59;101399.84;;;26.20;41.58
62617;BME280;62539;51.190;6.808;2023-07-13T12:05:27;101397.19;;;26.20;41.45
62617;BME280;62539;51.190;6.808;2023-07-13T12:07:54;101396.22;;;26.21;41.44
62617;BME280;62539;51.190;6.808;2023-07-13T12:10:28;101392.63;;;26.22;41.55
62617;BME280;62539;51.190;6.808;2023-07-13T12:12:58;101393.31;;;26.25;41.45
62617;BME280;62539;51.190;6.808;2023-07-13T12:15:39;101390.56;;;26.27;41.29
62617;BME280;62539;51.190;6.808;2023-07-13T12:18:23;101384.28;;;26.28;41.47
62617;BME280;62539;51.190;6.808;2023-07-13T12:20:57;101383.34;;;26.29;41.29
62617;BME280;62539;51.190;6.808;2023-07-13T12:23:29;101381.56;;;26.30;41.29
62617;BME280;62539;51.190;6.808;2023-07-13T12:26:02;101377.97;;;26.31;41.16
62617;BME280;62539;51.190;6.808;2023-07-13T12:28:33;101390.22;;;26.33;40.92
62617;BME280;62539;51.190;6.808;2023-07-13T12:31:07;101391.91;;;26.34;40.93
62617;BME280;62539;51.190;6.808;2023-07-13T12:33:57;101392.88;;;26.33;40.26
62617;BME280;62539;51.190;6.808;2023-07-13T12:36:48;101391.09;;;26.34;40.11
62617;BME280;62539;51.190;6.808;2023-07-13T12:39:32;101387.47;;;26.35;39.98
62617;BME280;62539;51.190;6.808;2023-07-13T12:45:17;101387.47;;;26.35;39.89
62617;BME280;62539;51.190;6.808;2023-07-13T12:47:53;101392.69;;;26.36;40.14
62617;BME280;62539;51.190;6.808;2023-07-13T12:50:30;101391.75;;;26.37;39.45
62617;BME280;62539;51.190;6.808;2023-07-13T12:53:04;101394.41;;;26.37;39.58
62617;BME280;62539;51.190;6.808;2023-07-13T12:55:41;101387.28;;;26.38;39.60
62617;BME280;62539;51.190;6.808;2023-07-13T12:58:16;101392.50;;;26.39;39.61
62617;BME280;62539;51.190;6.808;2023-07-13T13:00:51;101390.63;;;26.41;39.78
62617;BME280;62539;51.190;6.808;2023-07-13T13:03:28;101385.22;;;26.43;39.46
62617;BME280;62539;51.190;6.808;2023-07-13T13:08:50;101390.44;;;26.45;39.49
62617;BME280;62539;51.190;6.808;2023-07-13T13:11:19;101393.09;;;26.45;39.62
62617;BME280;62539;51.190;6.808;2023-07-13T13:13:46;101393.09;;;26.45;39.33
62617;BME280;62539;51.190;6.808;2023-07-13T13:18:50;101383.34;;;26.45;39.11
62617;BME280;62539;51.190;6.808;2023-07-13T13:21:20;101385.88;;;26.47;39.11
62617;BME280;62539;51.190;6.808;2023-07-13T13:23:46;101382.38;;;26.46;39.37
62617;BME280;62539;51.190;6.808;2023-07-13T13:26:14;101397.28;;;26.49;39.04
62617;BME280;62539;51.190;6.808;2023-07-13T13:28:43;101387.59;;;26.48;38.76
62617;BME280;62539;51.190;6.808;2023-07-13T13:31:10;101380.38;;;26.50;38.80
62617;BME280;62539;51.190;6.808;2023-07-13T13:33:38;101385.72;;;26.50;38.95